sensor_id;sensor_type;location;lat;lon;timestamp;temperature;humidity
19755;DHT22;10036;47.812;9.274;2023-01-31T00:01:07;1.20;99.90
19755;DHT22;10036;47.812;9.274;2023-01-31T00:03:35;1.20;99.90
19755;DHT22;10036;47.812;9.274;2023-01-31T00:06:15;1.20;99.90
19755;DHT22;10036;47.812;9.274;2023-01-31T00:08:42;1.20;99.90
19755;DHT22;10036;47.812;9.274;2023-01-31T00:11:11;1.20;99.90
19755;DHT22;10036;47.812;9.274;2023-01-31T00:13:39;1.00;99.90
19755;DHT22;10036;47.812;9.274;2023-01-31T00:16:06;1.10;99.90
19755;DHT22;10036;47.812;9.274;2023-01-31T00:18:34;1.10;99.90
19755;DHT22;10036;47.812;9.274;2023-01-31T00:21:10;1.10;99.90
19755;DHT22;10036;47.812;9.274;2023-01-31T00:23:38;1.00;99.90
19755;DHT22;10036;47.812;9.274;2023-01-31T00:26:15;1.10;99.90
19755;DHT22;10036;47.812;9.274;2023-01-31T00:28:44;1.10;99.90
19755;DHT22;10036;47.812;9.274;2023-01-31T00:31:13;1.10;99.90
19755;DHT22;10036;47.812;9.274;2023-01-31T00:33:42;1.10;99.90
19755;DHT22;10036;47.812;9.274;2023-01-31T00:36:11;1.10;99.90
19755;DHT22;10036;47.812;9.274;2023-01-31T00:38:39;1.10;99.90
19755;DHT22;10036;47.812;9.274;2023-01-31T00:41:07;1.20;99.90
19755;DHT22;10036;47.812;9.274;2023-01-31T00:43:35;1.10;99.90
19755;DHT22;10036;47.812;9.274;2023-01-31T00:46:02;1.00;99.90
19755;DHT22;10036;47.812;9.274;2023-01-31T00:48:30;1.00;99.90
19755;DHT22;10036;47.812;9.274;2023-01-31T00:50:57;1.00;99.90
19755;DHT22;10036;47.812;9.274;2023-01-31T00:53:24;1.00;99.90
19755;DHT22;10036;47.812;9.274;2023-01-31T00:55:52;0.90;99.90
19755;DHT22;10036;47.812;9.274;2023-01-31T00:58:20;0.90;99.90
19755;DHT22;10036;47.812;9.274;2023-01-31T01:00:48;1.00;99.90
19755;DHT22;10036;47.812;9.274;2023-01-31T01:03:15;1.00;99.90
19755;DHT22;10036;47.812;9.274;2023-01-31T01:05:42;1.00;99.90
19755;DHT22;10036;47.812;9.274;2023-01-31T01:08:09;1.00;99.90
19755;DHT22;10036;47.812;9.274;2023-01-31T01:10:37;1.00;99.90
19755;DHT22;10036;47.812;9.274;2023-01-31T01:13:03;1.00;99.90
19755;DHT22;10036;47.812;9.274;2023-01-31T01:15:31;1.00;99.90
19755;DHT22;10036;47.812;9.274;2023-01-31T01:17:59;1.00;99.90
19755;DHT22;10036;47.812;9.274;2023-01-31T01:20:26;1.00;99.90
19755;DHT22;10036;47.812;9.274;2023-01-31T01:22:53;1.00;99.90
19755;DHT22;10036;47.812;9.274;2023-01-31T01:25:20;1.00;99.90
19755;DHT22;10036;47.812;9.274;2023-01-31T01:27:47;1.10;99.90
19755;DHT22;10036;47.812;9.274;2023-01-31T01:30:14;1.10;99.90
19755;DHT22;10036;47.812;9.274;2023-01-31T01:32:41;1.10;99.90
19755;DHT22;10036;47.812;9.274;2023-01-31T01:35:09;1.10;99.90
19755;DHT22;10036;47.812;9.274;2023-01-31T01:37:36;1.10;99.90
19755;DHT22;10036;47.812;9.274;2023-01-31T01:40:04;1.20;99.90
19755;DHT22;10036;47.812;9.274;2023-01-31T01:42:34;1.10;99.90
19755;DHT22;10036;47.812;9.274;2023-01-31T01:45:01;1.20;99.90
19755;DHT22;10036;47.812;9.274;2023-01-31T01:47:34;1.10;99.90
19755;DHT22;10036;47.812;9.274;2023-01-31T01:50:06;1.10;99.90
19755;DHT22;10036;47.812;9.274;2023-01-31T01:52:39;1.10;99.90
19755;DHT22;10036;47.812;9.274;2023-01-31T01:55:15;1.30;99.90
19755;DHT22;10036;47.812;9.274;2023-01-31T01:57:45;1.10;99.90
19755;DHT22;10036;47.812;9.274;2023-01-31T02:00:16;1.20;99.90
19755;DHT22;10036;47.812;9.274;2023-01-31T02:02:45;1.20;99.90
19755;DHT22;10036;47.812;9.274;2023-01-31T02:05:15;1.30;99.90
19755;DHT22;10036;47.812;9.274;2023-01-31T02:07:44;1.30;99.90
19755;DHT22;10036;47.812;9.274;2023-01-31T02:10:16;1.30;99.90
19755;DHT22;10036;47.812;9.274;2023-01-31T02:12:45;1.40;99.90
19755;DHT22;10036;47.812;9.274;2023-01-31T02:15:12;1.30;99.90
19755;DHT22;10036;47.812;9.274;2023-01-31T02:17:39;1.30;99.90
19755;DHT22;10036;47.812;9.274;2023-01-31T02:20:35;1.20;99.90
19755;DHT22;10036;47.812;9.274;2023-01-31T02:23:23;1.20;99.90
19755;DHT22;10036;47.812;9.274;2023-01-31T02:29:27;1.20;99.90
19755;DHT22;10036;47.812;9.274;2023-01-31T02:35:09;1.30;99.90
19755;DHT22;10036;47.812;9.274;2023-01-31T02:37:43;1.30;99.90
19755;DHT22;10036;47.812;9.274;2023-01-31T02:40:18;1.20;99.90
19755;DHT22;10036;47.812;9.274;2023-01-31T02:42:53;1.20;99.90
19755;DHT22;10036;47.812;9.274;2023-01-31T02:45:33;1.20;99.90
19755;DHT22;10036;47.812;9.274;2023-01-31T02:48:06;1.20;99.90
19755;DHT22;10036;47.812;9.274;2023-01-31T02:50:40;1.20;99.90
19755;DHT22;10036;47.812;9.274;2023-01-31T02:53:13;1.20;99.90
19755;DHT22;10036;47.812;9.274;2023-01-31T02:55:46;1.20;99.90
19755;DHT22;10036;47.812;9.274;2023-01-31T02:58:35;1.20;99.90
19755;DHT22;10036;47.812;9.274;2023-01-31T03:01:03;1.20;99.90
19755;DHT22;10036;47.812;9.274;2023-01-31T03:03:33;1.20;99.90
19755;DHT22;10036;47.812;9.274;2023-01-31T03:06:52;1.20;99.90
19755;DHT22;10036;47.812;9.274;2023-01-31T03:09:29;1.20;99.90
19755;DHT22;10036;47.812;9.274;2023-01-31T03:12:09;1.20;99.90
19755;DHT22;10036;47.812;9.274;2023-01-31T03:14:47;1.20;99.90
19755;DHT22;10036;47.812;9.274;2023-01-31T03:17:22;1.20;99.90
19755;DHT22;10036;47.812;9.274;2023-01-31T03:20:05;1.20;99.90
19755;DHT22;10036;47.812;9.274;2023-01-31T03:22:35;1.20;99.90
19755;DHT22;10036;47.812;9.274;2023-01-31T03:25:07;1.20;99.90
19755;DHT22;10036;47.812;9.274;2023-01-31T03:27:37;1.10;99.90
19755;DHT22;10036;47.812;9.274;2023-01-31T03:30:11;1.20;99.90
19755;DHT22;10036;47.812;9.274;2023-01-31T03:32:43;1.10;99.90
19755;DHT22;10036;47.812;9.274;2023-01-31T03:35:11;1.10;99.90
19755;DHT22;10036;47.812;9.274;2023-01-31T03:37:45;1.30;99.90
19755;DHT22;10036;47.812;9.274;2023-01-31T03:40:19;1.10;99.90
19755;DHT22;10036;47.812;9.274;2023-01-31T03:42:54;1.20;99.90
19755;DHT22;10036;47.812;9.274;2023-01-31T03:45:27;1.10;99.90
19755;DHT22;10036;47.812;9.274;2023-01-31T03:47:56;1.00;99.90
19755;DHT22;10036;47.812;9.274;2023-01-31T03:50:27;1.10;99.90
19755;DHT22;10036;47.812;9.274;2023-01-31T03:52:59;1.10;99.90
19755;DHT22;10036;47.812;9.274;2023-01-31T03:55:32;1.00;99.90
19755;DHT22;10036;47.812;9.274;2023-01-31T03:58:02;1.00;99.90
19755;DHT22;10036;47.812;9.274;2023-01-31T04:00:33;1.00;99.90
19755;DHT22;10036;47.812;9.274;2023-01-31T04:03:06;1.00;99.90
19755;DHT22;10036;47.812;9.274;2023-01-31T04:05:36;1.00;99.90
19755;DHT22;10036;47.812;9.274;2023-01-31T04:08:05;1.10;99.90
19755;DHT22;10036;47.812;9.274;2023-01-31T04:10:32;1.00;99.90
19755;DHT22;10036;47.812;9.274;2023-01-31T04:12:59;1.00;99.90
19755;DHT22;10036;47.812;9.274;2023-01-31T04:15:26;1.10;99.90
19755;DHT22;10036;47.812;9.274;2023-01-31T04:17:53;1.00;99.90
19755;DHT22;10036;47.812;9.274;2023-01-31T04:20:20;1.00;99.90
19755;DHT22;10036;47.812;9.274;2023-01-31T04:22:47;1.00;99.90
19755;DHT22;10036;47.812;9.274;2023-01-31T04:25:15;0.90;99.90
19755;DHT22;10036;47.812;9.274;2023-01-31T04:27:42;1.00;99.90
19755;DHT22;10036;47.812;9.274;2023-01-31T04:30:10;1.00;99.90
19755;DHT22;10036;47.812;9.274;2023-01-31T04:32:37;1.00;99.90
19755;DHT22;10036;47.812;9.274;2023-01-31T04:35:04;1.10;99.90
19755;DHT22;10036;47.812;9.274;2023-01-31T04:37:31;1.00;99.90
19755;DHT22;10036;47.812;9.274;2023-01-31T04:39:58;1.00;99.90
19755;DHT22;10036;47.812;9.274;2023-01-31T04:42:27;1.00;99.90
19755;DHT22;10036;47.812;9.274;2023-01-31T04:44:54;1.00;99.90
19755;DHT22;10036;47.812;9.274;2023-01-31T04:47:21;1.10;99.90
19755;DHT22;10036;47.812;9.274;2023-01-31T04:49:47;1.00;99.90
19755;DHT22;10036;47.812;9.274;2023-01-31T04:52:14;1.10;99.90
19755;DHT22;10036;47.812;9.274;2023-01-31T04:54:41;1.00;99.90
19755;DHT22;10036;47.812;9.274;2023-01-31T04:57:08;1.00;99.90
19755;DHT22;10036;47.812;9.274;2023-01-31T04:59:37;1.00;99.90
19755;DHT22;10036;47.812;9.274;2023-01-31T05:02:03;1.00;99.90
19755;DHT22;10036;47.812;9.274;2023-01-31T05:04:30;1.00;99.90
19755;DHT22;10036;47.812;9.274;2023-01-31T05:06:57;1.00;99.90
19755;DHT22;10036;47.812;9.274;2023-01-31T05:09:24;1.00;99.90
19755;DHT22;10036;47.812;9.274;2023-01-31T05:11:51;1.10;99.90
19755;DHT22;10036;47.812;9.274;2023-01-31T05:14:18;1.10;99.90
19755;DHT22;10036;47.812;9.274;2023-01-31T05:16:47;1.00;99.90
19755;DHT22;10036;47.812;9.274;2023-01-31T05:19:14;1.10;99.90
19755;DHT22;10036;47.812;9.274;2023-01-31T05:21:41;1.10;99.90
19755;DHT22;10036;47.812;9.274;2023-01-31T05:24:24;1.10;99.90
19755;DHT22;10036;47.812;9.274;2023-01-31T05:26:52;1.10;99.90
19755;DHT22;10036;47.812;9.274;2023-01-31T05:29:23;1.10;99.90
19755;DHT22;10036;47.812;9.274;2023-01-31T05:31:53;1.00;99.90
19755;DHT22;10036;47.812;9.274;2023-01-31T05:34:20;1.10;99.90
19755;DHT22;10036;47.812;9.274;2023-01-31T05:36:49;1.10;99.90
19755;DHT22;10036;47.812;9.274;2023-01-31T05:39:16;1.10;99.90
19755;DHT22;10036;47.812;9.274;2023-01-31T05:41:43;1.10;99.90
19755;DHT22;10036;47.812;9.274;2023-01-31T05:44:10;1.20;99.90
19755;DHT22;10036;47.812;9.274;2023-01-31T05:46:39;1.20;99.90
19755;DHT22;10036;47.812;9.274;2023-01-31T05:49:07;1.10;99.90
19755;DHT22;10036;47.812;9.274;2023-01-31T05:51:34;1.10;99.90
19755;DHT22;10036;47.812;9.274;2023-01-31T05:54:01;1.20;99.90
19755;DHT22;10036;47.812;9.274;2023-01-31T05:56:28;1.10;99.90
19755;DHT22;10036;47.812;9.274;2023-01-31T05:58:55;1.40;99.90
19755;DHT22;10036;47.812;9.274;2023-01-31T06:01:25;1.10;99.90
19755;DHT22;10036;47.812;9.274;2023-01-31T06:03:52;1.00;99.90
19755;DHT22;10036;47.812;9.274;2023-01-31T06:06:21;1.10;99.90
19755;DHT22;10036;47.812;9.274;2023-01-31T06:08:47;1.00;99.90
19755;DHT22;10036;47.812;9.274;2023-01-31T06:11:14;1.00;99.90
19755;DHT22;10036;47.812;9.274;2023-01-31T06:13:43;1.10;99.90
19755;DHT22;10036;47.812;9.274;2023-01-31T06:16:10;1.20;99.90
19755;DHT22;10036;47.812;9.274;2023-01-31T06:18:37;1.10;99.90
19755;DHT22;10036;47.812;9.274;2023-01-31T06:21:04;1.10;99.90
19755;DHT22;10036;47.812;9.274;2023-01-31T06:23:33;1.10;99.90
19755;DHT22;10036;47.812;9.274;2023-01-31T06:26:00;1.10;99.90
19755;DHT22;10036;47.812;9.274;2023-01-31T06:28:27;1.10;99.90
19755;DHT22;10036;47.812;9.274;2023-01-31T06:30:54;1.10;99.90
19755;DHT22;10036;47.812;9.274;2023-01-31T06:33:21;1.00;99.90
19755;DHT22;10036;47.812;9.274;2023-01-31T06:35:48;1.00;99.90
19755;DHT22;10036;47.812;9.274;2023-01-31T06:38:15;1.00;99.90
19755;DHT22;10036;47.812;9.274;2023-01-31T06:40:43;1.00;99.90
19755;DHT22;10036;47.812;9.274;2023-01-31T06:43:10;1.00;99.90
19755;DHT22;10036;47.812;9.274;2023-01-31T06:45:37;1.00;99.90
19755;DHT22;10036;47.812;9.274;2023-01-31T06:48:04;1.00;99.90
19755;DHT22;10036;47.812;9.274;2023-01-31T06:50:31;1.00;99.90
19755;DHT22;10036;47.812;9.274;2023-01-31T06:52:58;1.10;99.90
19755;DHT22;10036;47.812;9.274;2023-01-31T06:55:25;1.00;99.90
19755;DHT22;10036;47.812;9.274;2023-01-31T06:57:53;1.00;99.90
19755;DHT22;10036;47.812;9.274;2023-01-31T07:00:21;1.00;99.90
19755;DHT22;10036;47.812;9.274;2023-01-31T07:02:50;1.00;99.90
19755;DHT22;10036;47.812;9.274;2023-01-31T07:05:17;0.90;99.90
19755;DHT22;10036;47.812;9.274;2023-01-31T07:07:45;0.90;99.90
19755;DHT22;10036;47.812;9.274;2023-01-31T07:10:12;0.90;99.90
19755;DHT22;10036;47.812;9.274;2023-01-31T07:12:39;1.00;99.90
19755;DHT22;10036;47.812;9.274;2023-01-31T07:15:09;0.90;99.90
19755;DHT22;10036;47.812;9.274;2023-01-31T07:17:36;0.90;99.90
19755;DHT22;10036;47.812;9.274;2023-01-31T07:20:04;0.90;99.90
19755;DHT22;10036;47.812;9.274;2023-01-31T07:22:31;0.90;99.90
19755;DHT22;10036;47.812;9.274;2023-01-31T07:24:58;0.80;99.90
19755;DHT22;10036;47.812;9.274;2023-01-31T07:27:26;0.90;99.90
19755;DHT22;10036;47.812;9.274;2023-01-31T07:29:53;1.00;99.90
19755;DHT22;10036;47.812;9.274;2023-01-31T07:32:21;1.00;99.90
19755;DHT22;10036;47.812;9.274;2023-01-31T07:34:48;1.00;99.90
19755;DHT22;10036;47.812;9.274;2023-01-31T07:37:16;1.00;99.90
19755;DHT22;10036;47.812;9.274;2023-01-31T07:39:43;1.10;99.90
19755;DHT22;10036;47.812;9.274;2023-01-31T07:42:09;1.10;99.90
19755;DHT22;10036;47.812;9.274;2023-01-31T07:44:36;1.20;99.90
19755;DHT22;10036;47.812;9.274;2023-01-31T07:47:03;1.30;99.90
19755;DHT22;10036;47.812;9.274;2023-01-31T07:49:32;1.20;99.90
19755;DHT22;10036;47.812;9.274;2023-01-31T07:52:00;1.20;99.90
19755;DHT22;10036;47.812;9.274;2023-01-31T07:54:27;1.20;99.90
19755;DHT22;10036;47.812;9.274;2023-01-31T07:56:54;1.40;99.90
19755;DHT22;10036;47.812;9.274;2023-01-31T07:59:21;1.30;99.90
19755;DHT22;10036;47.812;9.274;2023-01-31T08:01:48;1.30;99.90
19755;DHT22;10036;47.812;9.274;2023-01-31T08:04:34;1.30;99.90
19755;DHT22;10036;47.812;9.274;2023-01-31T08:07:01;1.40;99.90
19755;DHT22;10036;47.812;9.274;2023-01-31T08:09:30;1.50;99.90
19755;DHT22;10036;47.812;9.274;2023-01-31T08:11:57;1.40;99.90
19755;DHT22;10036;47.812;9.274;2023-01-31T08:14:24;1.40;99.90
19755;DHT22;10036;47.812;9.274;2023-01-31T08:16:53;1.40;99.90
19755;DHT22;10036;47.812;9.274;2023-01-31T08:19:20;1.50;99.90
19755;DHT22;10036;47.812;9.274;2023-01-31T08:21:49;1.50;99.90
19755;DHT22;10036;47.812;9.274;2023-01-31T08:24:16;1.40;99.90
19755;DHT22;10036;47.812;9.274;2023-01-31T08:26:43;1.50;99.90
19755;DHT22;10036;47.812;9.274;2023-01-31T08:29:10;1.50;99.90
19755;DHT22;10036;47.812;9.274;2023-01-31T08:31:40;1.40;99.90
19755;DHT22;10036;47.812;9.274;2023-01-31T08:34:08;1.40;99.90
19755;DHT22;10036;47.812;9.274;2023-01-31T08:36:35;1.40;99.90
19755;DHT22;10036;47.812;9.274;2023-01-31T08:39:04;1.40;99.90
19755;DHT22;10036;47.812;9.274;2023-01-31T08:41:32;1.40;99.90
19755;DHT22;10036;47.812;9.274;2023-01-31T08:43:59;1.40;99.90
19755;DHT22;10036;47.812;9.274;2023-01-31T08:46:30;1.40;99.90
19755;DHT22;10036;47.812;9.274;2023-01-31T08:48:58;1.50;99.90
19755;DHT22;10036;47.812;9.274;2023-01-31T08:51:26;1.50;99.90
19755;DHT22;10036;47.812;9.274;2023-01-31T08:53:53;1.50;99.90
19755;DHT22;10036;47.812;9.274;2023-01-31T08:56:21;1.40;99.90
19755;DHT22;10036;47.812;9.274;2023-01-31T08:58:51;1.50;99.90
19755;DHT22;10036;47.812;9.274;2023-01-31T09:01:19;1.40;99.90
19755;DHT22;10036;47.812;9.274;2023-01-31T09:03:47;1.40;99.90
19755;DHT22;10036;47.812;9.274;2023-01-31T09:06:17;1.40;99.90
19755;DHT22;10036;47.812;9.274;2023-01-31T09:08:44;1.40;99.90
19755;DHT22;10036;47.812;9.274;2023-01-31T09:11:11;1.50;99.90
19755;DHT22;10036;47.812;9.274;2023-01-31T09:13:43;1.60;99.90
19755;DHT22;10036;47.812;9.274;2023-01-31T09:16:11;1.60;99.90
19755;DHT22;10036;47.812;9.274;2023-01-31T09:18:39;1.80;99.90
19755;DHT22;10036;47.812;9.274;2023-01-31T09:21:08;1.60;99.90
19755;DHT22;10036;47.812;9.274;2023-01-31T09:23:35;1.70;99.90
19755;DHT22;10036;47.812;9.274;2023-01-31T09:26:03;1.80;99.90
19755;DHT22;10036;47.812;9.274;2023-01-31T09:28:30;1.80;99.90
19755;DHT22;10036;47.812;9.274;2023-01-31T09:31:03;1.90;99.90
19755;DHT22;10036;47.812;9.274;2023-01-31T09:33:32;2.00;99.90
19755;DHT22;10036;47.812;9.274;2023-01-31T09:36:01;2.00;99.90
19755;DHT22;10036;47.812;9.274;2023-01-31T09:38:28;2.20;99.90
19755;DHT22;10036;47.812;9.274;2023-01-31T09:40:56;2.20;99.90
19755;DHT22;10036;47.812;9.274;2023-01-31T09:43:29;2.30;99.90
19755;DHT22;10036;47.812;9.274;2023-01-31T09:46:01;2.50;99.90
19755;DHT22;10036;47.812;9.274;2023-01-31T09:48:31;2.50;99.90
19755;DHT22;10036;47.812;9.274;2023-01-31T09:51:01;2.60;99.90
19755;DHT22;10036;47.812;9.274;2023-01-31T09:53:32;2.60;99.90
19755;DHT22;10036;47.812;9.274;2023-01-31T09:56:13;2.50;99.90
19755;DHT22;10036;47.812;9.274;2023-01-31T09:58:49;2.60;99.90
19755;DHT22;10036;47.812;9.274;2023-01-31T10:01:24;2.60;99.90
19755;DHT22;10036;47.812;9.274;2023-01-31T10:04:04;2.60;99.90
19755;DHT22;10036;47.812;9.274;2023-01-31T10:06:38;2.70;99.90
19755;DHT22;10036;47.812;9.274;2023-01-31T10:09:13;2.60;99.90
19755;DHT22;10036;47.812;9.274;2023-01-31T10:11:43;2.60;99.90
19755;DHT22;10036;47.812;9.274;2023-01-31T10:14:30;2.50;99.90
19755;DHT22;10036;47.812;9.274;2023-01-31T10:17:06;2.50;99.90
19755;DHT22;10036;47.812;9.274;2023-01-31T10:19:41;2.80;99.90
19755;DHT22;10036;47.812;9.274;2023-01-31T10:22:12;3.00;99.90
19755;DHT22;10036;47.812;9.274;2023-01-31T10:24:44;3.20;99.90
19755;DHT22;10036;47.812;9.274;2023-01-31T10:27:16;3.20;99.90
19755;DHT22;10036;47.812;9.274;2023-01-31T10:29:50;3.20;99.90
19755;DHT22;10036;47.812;9.274;2023-01-31T10:32:23;3.40;99.90
19755;DHT22;10036;47.812;9.274;2023-01-31T10:34:54;3.30;99.90
19755;DHT22;10036;47.812;9.274;2023-01-31T10:37:29;3.20;99.90
19755;DHT22;10036;47.812;9.274;2023-01-31T10:40:00;3.40;99.90
19755;DHT22;10036;47.812;9.274;2023-01-31T10:42:30;3.40;99.90
19755;DHT22;10036;47.812;9.274;2023-01-31T10:45:01;3.20;99.90
19755;DHT22;10036;47.812;9.274;2023-01-31T10:47:32;3.30;99.90
19755;DHT22;10036;47.812;9.274;2023-01-31T10:50:00;3.40;99.90
19755;DHT22;10036;47.812;9.274;2023-01-31T10:52:41;3.60;99.90
19755;DHT22;10036;47.812;9.274;2023-01-31T10:55:27;3.40;99.90
19755;DHT22;10036;47.812;9.274;2023-01-31T10:57:56;3.50;99.90
19755;DHT22;10036;47.812;9.274;2023-01-31T11:00:28;3.40;99.90
19755;DHT22;10036;47.812;9.274;2023-01-31T11:02:57;3.60;99.90
19755;DHT22;10036;47.812;9.274;2023-01-31T11:05:27;3.90;99.90
19755;DHT22;10036;47.812;9.274;2023-01-31T11:07:55;3.70;99.90
19755;DHT22;10036;47.812;9.274;2023-01-31T11:10:25;3.70;99.90
19755;DHT22;10036;47.812;9.274;2023-01-31T11:12:54;3.80;99.90
19755;DHT22;10036;47.812;9.274;2023-01-31T11:15:24;3.80;99.90
19755;DHT22;10036;47.812;9.274;2023-01-31T11:17:55;3.80;99.90
19755;DHT22;10036;47.812;9.274;2023-01-31T11:20:26;3.80;99.90
19755;DHT22;10036;47.812;9.274;2023-01-31T11:22:55;3.70;99.90
19755;DHT22;10036;47.812;9.274;2023-01-31T11:25:26;3.60;99.90
19755;DHT22;10036;47.812;9.274;2023-01-31T11:27:57;3.70;99.90
19755;DHT22;10036;47.812;9.274;2023-01-31T11:30:28;3.50;99.90
19755;DHT22;10036;47.812;9.274;2023-01-31T11:32:55;3.60;99.90
19755;DHT22;10036;47.812;9.274;2023-01-31T11:35:26;3.60;99.90
19755;DHT22;10036;47.812;9.274;2023-01-31T11:37:55;3.60;99.90
19755;DHT22;10036;47.812;9.274;2023-01-31T11:40:27;3.60;99.90
19755;DHT22;10036;47.812;9.274;2023-01-31T11:42:57;3.60;99.90
19755;DHT22;10036;47.812;9.274;2023-01-31T11:45:25;3.60;99.90
19755;DHT22;10036;47.812;9.274;2023-01-31T11:47:56;3.80;99.90
19755;DHT22;10036;47.812;9.274;2023-01-31T11:50:30;3.50;99.90
19755;DHT22;10036;47.812;9.274;2023-01-31T11:52:59;3.50;99.90
19755;DHT22;10036;47.812;9.274;2023-01-31T11:55:35;3.40;99.90
19755;DHT22;10036;47.812;9.274;2023-01-31T11:58:16;3.40;99.90
19755;DHT22;10036;47.812;9.274;2023-01-31T12:00:52;3.60;99.90
19755;DHT22;10036;47.812;9.274;2023-01-31T12:03:19;3.60;99.90
19755;DHT22;10036;47.812;9.274;2023-01-31T12:05:51;3.70;99.90
19755;DHT22;10036;47.812;9.274;2023-01-31T12:08:27;3.70;99.90
19755;DHT22;10036;47.812;9.274;2023-01-31T12:10:55;3.90;99.90
19755;DHT22;10036;47.812;9.274;2023-01-31T12:13:22;4.00;99.90
19755;DHT22;10036;47.812;9.274;2023-01-31T12:15:52;4.00;99.90
19755;DHT22;10036;47.812;9.274;2023-01-31T12:18:36;4.10;99.90
19755;DHT22;10036;47.812;9.274;2023-01-31T12:21:12;4.10;99.90
19755;DHT22;10036;47.812;9.274;2023-01-31T12:23:51;4.10;99.90
19755;DHT22;10036;47.812;9.274;2023-01-31T12:26:25;4.20;99.90
19755;DHT22;10036;47.812;9.274;2023-01-31T12:29:08;4.30;99.90
19755;DHT22;10036;47.812;9.274;2023-01-31T12:32:01;4.30;99.90
19755;DHT22;10036;47.812;9.274;2023-01-31T12:34:45;4.30;99.90
19755;DHT22;10036;47.812;9.274;2023-01-31T12:37:30;4.40;99.90
19755;DHT22;10036;47.812;9.274;2023-01-31T12:40:10;4.30;99.90
19755;DHT22;10036;47.812;9.274;2023-01-31T12:42:54;4.40;99.90
19755;DHT22;10036;47.812;9.274;2023-01-31T12:45:37;4.50;99.90
19755;DHT22;10036;47.812;9.274;2023-01-31T12:48:40;4.60;99.90
19755;DHT22;10036;47.812;9.274;2023-01-31T12:51:20;4.80;99.90
19755;DHT22;10036;47.812;9.274;2023-01-31T12:54:02;5.00;99.90
19755;DHT22;10036;47.812;9.274;2023-01-31T12:56:47;5.00;99.90
19755;DHT22;10036;47.812;9.274;2023-01-31T12:59:28;5.00;99.90
19755;DHT22;10036;47.812;9.274;2023-01-31T13:02:09;5.00;99.90
19755;DHT22;10036;47.812;9.274;2023-01-31T13:04:41;4.90;99.90
19755;DHT22;10036;47.812;9.274;2023-01-31T13:07:15;4.90;99.90
19755;DHT22;10036;47.812;9.274;2023-01-31T13:09:49;5.10;99.90
19755;DHT22;10036;47.812;9.274;2023-01-31T13:12:20;5.40;99.90
19755;DHT22;10036;47.812;9.274;2023-01-31T13:14:55;5.30;99.90
19755;DHT22;10036;47.812;9.274;2023-01-31T13:17:26;5.40;99.90
19755;DHT22;10036;47.812;9.274;2023-01-31T13:19:56;5.20;99.90
19755;DHT22;10036;47.812;9.274;2023-01-31T13:22:26;5.20;99.90
19755;DHT22;10036;47.812;9.274;2023-01-31T13:25:02;5.20;99.90
19755;DHT22;10036;47.812;9.274;2023-01-31T13:27:36;5.20;99.90
19755;DHT22;10036;47.812;9.274;2023-01-31T13:30:15;5.10;99.90
19755;DHT22;10036;47.812;9.274;2023-01-31T13:32:46;4.90;99.90
19755;DHT22;10036;47.812;9.274;2023-01-31T13:35:17;4.90;99.90
19755;DHT22;10036;47.812;9.274;2023-01-31T13:37:49;4.80;99.90
19755;DHT22;10036;47.812;9.274;2023-01-31T13:40:23;4.90;99.90
19755;DHT22;10036;47.812;9.274;2023-01-31T13:42:50;4.90;99.90
19755;DHT22;10036;47.812;9.274;2023-01-31T13:45:22;4.90;99.90
19755;DHT22;10036;47.812;9.274;2023-01-31T13:47:52;4.90;99.90
19755;DHT22;10036;47.812;9.274;2023-01-31T13:50:29;4.90;99.90
19755;DHT22;10036;47.812;9.274;2023-01-31T13:53:00;4.80;99.90
19755;DHT22;10036;47.812;9.274;2023-01-31T13:55:31;4.70;99.90
19755;DHT22;10036;47.812;9.274;2023-01-31T13:58:04;4.80;99.90
19755;DHT22;10036;47.812;9.274;2023-01-31T14:00:38;4.80;99.90
19755;DHT22;10036;47.812;9.274;2023-01-31T14:03:07;4.70;99.90
19755;DHT22;10036;47.812;9.274;2023-01-31T14:05:54;4.70;99.90
19755;DHT22;10036;47.812;9.274;2023-01-31T14:08:31;4.60;99.90
19755;DHT22;10036;47.812;9.274;2023-01-31T14:11:29;4.50;99.90
19755;DHT22;10036;47.812;9.274;2023-01-31T14:14:20;4.40;99.90
19755;DHT22;10036;47.812;9.274;2023-01-31T14:16:52;4.30;99.90
19755;DHT22;10036;47.812;9.274;2023-01-31T14:20:03;4.40;99.90
19755;DHT22;10036;47.812;9.274;2023-01-31T14:22:31;4.40;99.90
19755;DHT22;10036;47.812;9.274;2023-01-31T14:25:01;4.30;99.90
19755;DHT22;10036;47.812;9.274;2023-01-31T14:27:45;4.30;99.90
19755;DHT22;10036;47.812;9.274;2023-01-31T14:30:28;4.40;99.90
19755;DHT22;10036;47.812;9.274;2023-01-31T14:33:18;4.30;99.90
19755;DHT22;10036;47.812;9.274;2023-01-31T14:36:01;4.20;99.90
19755;DHT22;10036;47.812;9.274;2023-01-31T14:38:43;4.20;99.90
19755;DHT22;10036;47.812;9.274;2023-01-31T14:41:17;4.30;99.90
19755;DHT22;10036;47.812;9.274;2023-01-31T14:43:57;4.30;99.90
19755;DHT22;10036;47.812;9.274;2023-01-31T14:46:55;4.50;99.90
19755;DHT22;10036;47.812;9.274;2023-01-31T14:49:37;4.30;99.90
19755;DHT22;10036;47.812;9.274;2023-01-31T14:52:26;4.40;99.90
19755;DHT22;10036;47.812;9.274;2023-01-31T14:55:11;4.10;99.90
19755;DHT22;10036;47.812;9.274;2023-01-31T14:57:49;4.10;99.90
19755;DHT22;10036;47.812;9.274;2023-01-31T15:00:19;4.10;99.90
19755;DHT22;10036;47.812;9.274;2023-01-31T15:02:52;4.10;99.90
19755;DHT22;10036;47.812;9.274;2023-01-31T15:05:38;4.10;99.90
19755;DHT22;10036;47.812;9.274;2023-01-31T15:08:32;4.10;99.90
19755;DHT22;10036;47.812;9.274;2023-01-31T15:11:02;4.10;99.90
19755;DHT22;10036;47.812;9.274;2023-01-31T15:13:39;4.10;99.90
19755;DHT22;10036;47.812;9.274;2023-01-31T15:16:09;4.00;99.90
19755;DHT22;10036;47.812;9.274;2023-01-31T15:18:42;4.00;99.90
19755;DHT22;10036;47.812;9.274;2023-01-31T15:21:11;4.00;99.90
19755;DHT22;10036;47.812;9.274;2023-01-31T15:23:47;4.00;99.90
19755;DHT22;10036;47.812;9.274;2023-01-31T15:26:16;4.00;99.90
19755;DHT22;10036;47.812;9.274;2023-01-31T15:28:44;4.10;99.90
19755;DHT22;10036;47.812;9.274;2023-01-31T15:31:17;4.00;99.90
19755;DHT22;10036;47.812;9.274;2023-01-31T15:33:49;4.00;99.90
19755;DHT22;10036;47.812;9.274;2023-01-31T15:36:20;3.90;99.90
19755;DHT22;10036;47.812;9.274;2023-01-31T15:38:52;3.90;99.90
19755;DHT22;10036;47.812;9.274;2023-01-31T15:41:23;3.90;99.90
19755;DHT22;10036;47.812;9.274;2023-01-31T15:43:52;3.80;99.90
19755;DHT22;10036;47.812;9.274;2023-01-31T15:46:28;3.90;99.90
19755;DHT22;10036;47.812;9.274;2023-01-31T15:48:55;3.80;99.90
19755;DHT22;10036;47.812;9.274;2023-01-31T15:51:22;3.70;99.90
19755;DHT22;10036;47.812;9.274;2023-01-31T15:53:59;3.80;99.90
19755;DHT22;10036;47.812;9.274;2023-01-31T15:56:27;3.80;99.90
19755;DHT22;10036;47.812;9.274;2023-01-31T15:58:55;3.80;99.90
19755;DHT22;10036;47.812;9.274;2023-01-31T16:01:23;3.70;99.90
19755;DHT22;10036;47.812;9.274;2023-01-31T16:03:52;3.80;99.90
19755;DHT22;10036;47.812;9.274;2023-01-31T16:06:26;3.60;99.90
19755;DHT22;10036;47.812;9.274;2023-01-31T16:08:57;3.60;99.90
19755;DHT22;10036;47.812;9.274;2023-01-31T16:11:25;3.70;99.90
19755;DHT22;10036;47.812;9.274;2023-01-31T16:13:55;3.70;99.90
19755;DHT22;10036;47.812;9.274;2023-01-31T16:16:24;3.80;99.90
19755;DHT22;10036;47.812;9.274;2023-01-31T16:18:54;3.70;99.90